createdAt,value
2017-06-25T00:00:16.760Z,19.34
2017-06-25T00:00:42.859Z,19.26
2017-06-25T00:01:08.950Z,19.33
2017-06-25T00:01:35.056Z,19.37
2017-06-25T00:02:01.154Z,19.34
2017-06-25T00:02:27.243Z,19.31
2017-06-25T00:02:53.346Z,19.36
2017-06-25T00:03:19.454Z,19.31
2017-06-25T00:03:45.548Z,19.31
2017-06-25T00:04:11.643Z,19.27
2017-06-25T00:04:37.734Z,19.39
2017-06-25T00:05:03.840Z,19.37
2017-06-25T00:05:29.940Z,19.31
2017-06-25T00:05:56.106Z,19.33
2017-06-25T00:06:22.210Z,19.44
2017-06-25T00:06:48.316Z,19.34
2017-06-25T00:07:14.429Z,19.51
2017-06-25T00:07:40.529Z,19.47
2017-06-25T00:08:06.663Z,19.49
2017-06-25T00:08:32.753Z,19.39
2017-06-25T00:08:58.874Z,19.51
2017-06-25T00:09:24.998Z,19.4
2017-06-25T00:09:51.102Z,19.51
2017-06-25T00:10:17.204Z,19.4
2017-06-25T00:10:43.315Z,19.39
2017-06-25T00:11:09.415Z,19.48
2017-06-25T00:11:35.522Z,19.48
2017-06-25T00:12:01.614Z,19.51
2017-06-25T00:12:27.710Z,19.44
2017-06-25T00:12:53.816Z,19.41
2017-06-25T00:13:19.910Z,19.39
2017-06-25T00:13:45.998Z,19.39
2017-06-25T00:14:12.107Z,19.48
2017-06-25T00:14:38.202Z,19.45
2017-06-25T00:15:04.319Z,19.37
2017-06-25T00:15:30.450Z,19.52
2017-06-25T00:15:56.549Z,19.44
2017-06-25T00:16:22.683Z,19.39
2017-06-25T00:16:48.803Z,19.41
2017-06-25T00:17:14.894Z,19.45
2017-06-25T00:17:41.005Z,19.4
2017-06-25T00:18:07.125Z,19.33
2017-06-25T00:18:33.212Z,19.21
2017-06-25T00:18:59.345Z,19.21
2017-06-25T00:19:25.445Z,19.29
2017-06-25T00:19:51.537Z,19.24
2017-06-25T00:20:17.640Z,19.24
2017-06-25T00:20:43.732Z,19.24
2017-06-25T00:21:09.841Z,19.3
2017-06-25T00:21:35.939Z,19.26
2017-06-25T00:22:02.029Z,19.36
2017-06-25T00:22:28.162Z,19.34
2017-06-25T00:22:54.289Z,19.31
2017-06-25T00:23:20.379Z,19.37
2017-06-25T00:23:46.480Z,19.36
2017-06-25T00:24:12.615Z,19.34
2017-06-25T00:24:38.701Z,19.31
2017-06-25T00:25:04.799Z,19.3
2017-06-25T00:25:30.906Z,19.33
2017-06-25T00:25:56.997Z,19.33
2017-06-25T00:26:23.128Z,19.34
2017-06-25T00:26:49.218Z,19.39
2017-06-25T00:27:15.321Z,19.37
2017-06-25T00:27:41.428Z,19.29
2017-06-25T00:28:07.514Z,19.31
2017-06-25T00:28:33.615Z,19.3
2017-06-25T00:28:59.721Z,19.31
2017-06-25T00:29:25.812Z,19.34
2017-06-25T00:29:51.905Z,19.36
2017-06-25T00:30:18.010Z,19.31
2017-06-25T00:30:44.103Z,19.3
2017-06-25T00:31:10.191Z,19.34
2017-06-25T00:31:36.300Z,19.33
2017-06-25T00:32:02.424Z,19.34
2017-06-25T00:32:28.538Z,19.3
2017-06-25T00:32:54.643Z,19.29
2017-06-25T00:33:20.743Z,19.26
2017-06-25T00:33:46.833Z,19.3
2017-06-25T00:34:12.989Z,19.29
2017-06-25T00:34:39.095Z,19.29
2017-06-25T00:35:05.184Z,19.31
2017-06-25T00:35:31.306Z,19.31
2017-06-25T00:35:57.412Z,19.31
2017-06-25T00:36:23.502Z,19.37
2017-06-25T00:36:49.594Z,19.36
2017-06-25T00:37:15.722Z,19.41
2017-06-25T00:37:41.823Z,19.41
2017-06-25T00:38:07.927Z,19.31
2017-06-25T00:38:34.019Z,19.33
2017-06-25T00:39:00.118Z,19.31
2017-06-25T00:39:26.252Z,19.31
2017-06-25T00:39:52.341Z,19.4
2017-06-25T00:40:18.437Z,19.4
2017-06-25T00:40:44.542Z,19.4
2017-06-25T00:41:10.686Z,19.41
2017-06-25T00:41:36.776Z,19.37
2017-06-25T00:42:02.913Z,19.48
2017-06-25T00:42:29.037Z,19.41
2017-06-25T00:42:55.139Z,19.41
2017-06-25T00:43:21.229Z,19.49
2017-06-25T00:43:47.327Z,19.45
2017-06-25T00:44:13.432Z,19.34
2017-06-25T00:44:39.528Z,19.36
2017-06-25T00:45:05.620Z,19.3
2017-06-25T00:45:31.758Z,19.31
2017-06-25T00:45:57.879Z,19.36
2017-06-25T00:46:23.994Z,19.3
2017-06-25T00:46:50.099Z,19.33
2017-06-25T00:47:16.235Z,19.44
2017-06-25T00:47:42.317Z,19.39
2017-06-25T00:48:08.419Z,19.36
2017-06-25T00:48:34.510Z,19.3
2017-06-25T00:49:00.619Z,19.29
2017-06-25T00:49:26.744Z,19.33
2017-06-25T00:49:52.836Z,19.36
2017-06-25T00:50:18.942Z,19.29
2017-06-25T00:50:45.041Z,19.31
2017-06-25T00:51:11.157Z,19.44
2017-06-25T00:51:37.258Z,19.31
2017-06-25T00:52:03.365Z,19.4
2017-06-25T00:52:29.455Z,19.3
2017-06-25T00:52:55.555Z,19.34
2017-06-25T00:53:21.688Z,19.3
2017-06-25T00:53:47.779Z,19.39
2017-06-25T00:54:13.878Z,19.31
2017-06-25T00:54:39.981Z,19.34
2017-06-25T00:55:06.076Z,19.3
2017-06-25T00:55:32.166Z,19.27
2017-06-25T00:55:58.273Z,19.34
2017-06-25T00:56:24.370Z,19.31
2017-06-25T00:56:50.460Z,19.39
2017-06-25T00:57:16.567Z,19.31
2017-06-25T00:57:42.666Z,19.3
2017-06-25T00:58:08.755Z,19.31
2017-06-25T00:58:34.858Z,19.31
2017-06-25T00:59:00.966Z,19.3
2017-06-25T00:59:27.061Z,19.31
2017-06-25T00:59:53.184Z,19.27
2017-06-25T01:00:19.276Z,19.33
2017-06-25T01:00:45.382Z,19.29
2017-06-25T01:01:11.482Z,19.37
2017-06-25T01:01:37.572Z,19.44
2017-06-25T01:02:03.676Z,19.3
2017-06-25T01:02:29.811Z,19.29
2017-06-25T01:02:55.899Z,19.31
2017-06-25T01:03:21.999Z,19.44
2017-06-25T01:03:48.130Z,19.37
2017-06-25T01:04:14.221Z,19.34
2017-06-25T01:04:40.316Z,19.27
2017-06-25T01:05:06.441Z,19.26
2017-06-25T01:05:32.544Z,19.3
2017-06-25T01:05:58.678Z,19.24
2017-06-25T01:06:24.791Z,19.26
2017-06-25T01:06:50.894Z,19.24
2017-06-25T01:07:17.026Z,19.19
2017-06-25T01:07:43.119Z,19.08
2017-06-25T01:08:09.264Z,19.12
2017-06-25T01:08:35.394Z,19.18
2017-06-25T01:09:01.488Z,19.24
2017-06-25T01:09:27.604Z,19.26
2017-06-25T01:09:53.741Z,19.21
2017-06-25T01:10:19.840Z,19.14
2017-06-25T01:10:45.946Z,19.18
2017-06-25T01:11:12.044Z,19.14
2017-06-25T01:11:38.158Z,19.22
2017-06-25T01:12:04.280Z,19.18
2017-06-25T01:12:30.387Z,19.26
2017-06-25T01:12:56.478Z,19.18
2017-06-25T01:13:22.586Z,19.21
2017-06-25T01:13:48.684Z,19.15
2017-06-25T01:14:14.775Z,19.18
2017-06-25T01:14:40.882Z,19.26
2017-06-25T01:15:06.981Z,19.27
2017-06-25T01:15:33.070Z,19.27
2017-06-25T01:15:59.172Z,19.29
2017-06-25T01:16:25.307Z,19.3
2017-06-25T01:16:51.420Z,19.33
2017-06-25T01:17:17.520Z,19.27
2017-06-25T01:17:43.627Z,19.29
2017-06-25T01:18:09.740Z,19.27
2017-06-25T01:18:35.838Z,19.26
2017-06-25T01:19:01.942Z,19.22
2017-06-25T01:19:28.036Z,19.12
2017-06-25T01:19:54.150Z,19.12
2017-06-25T01:20:20.261Z,19.16
2017-06-25T01:20:46.384Z,19.16
2017-06-25T01:21:12.499Z,19.18
2017-06-25T01:21:38.607Z,19.16
2017-06-25T01:22:04.699Z,19.18
2017-06-25T01:22:30.803Z,19.14
2017-06-25T01:22:56.897Z,19.12
2017-06-25T01:23:23.011Z,19.04
2017-06-25T01:23:49.171Z,19.08
2017-06-25T01:24:15.268Z,19.11
2017-06-25T01:24:41.383Z,19.14
2017-06-25T01:25:07.490Z,19.12
2017-06-25T01:25:33.618Z,19.11
2017-06-25T01:25:59.730Z,19.08
2017-06-25T01:26:25.832Z,19.09
2017-06-25T01:26:51.939Z,19.09
2017-06-25T01:27:18.034Z,19.12
2017-06-25T01:27:44.131Z,19.08
2017-06-25T01:28:10.247Z,18.93
2017-06-25T01:28:36.352Z,18.99
2017-06-25T01:29:02.478Z,18.92
2017-06-25T01:29:28.566Z,18.89
2017-06-25T01:29:54.671Z,18.86
2017-06-25T01:30:20.806Z,18.95
2017-06-25T01:30:46.919Z,18.96
2017-06-25T01:31:13.018Z,18.93
2017-06-25T01:31:39.125Z,18.93
2017-06-25T01:32:05.213Z,18.95
2017-06-25T01:32:31.312Z,19.04
2017-06-25T01:32:57.433Z,18.95
2017-06-25T01:33:23.561Z,18.99
2017-06-25T01:33:49.668Z,19.09
2017-06-25T01:34:15.779Z,18.9
2017-06-25T01:34:41.903Z,19.02
2017-06-25T01:35:08.038Z,18.92
2017-06-25T01:35:34.129Z,18.93
2017-06-25T01:36:00.226Z,19.02
2017-06-25T01:36:26.359Z,19.08
2017-06-25T01:36:52.480Z,18.96
2017-06-25T01:37:18.571Z,19.02
2017-06-25T01:37:44.680Z,19.07
2017-06-25T01:38:10.774Z,18.95
2017-06-25T01:38:36.898Z,18.93
2017-06-25T01:39:02.994Z,19.07
2017-06-25T01:39:29.115Z,19.07
2017-06-25T01:39:55.220Z,19.11
2017-06-25T01:40:21.342Z,18.99
2017-06-25T01:40:47.432Z,18.9
2017-06-25T01:41:13.538Z,18.9
2017-06-25T01:41:39.634Z,18.88
2017-06-25T01:42:05.725Z,18.88
2017-06-25T01:42:31.859Z,18.98
2017-06-25T01:42:57.986Z,19
2017-06-25T01:43:24.078Z,19
2017-06-25T01:43:50.180Z,18.93
2017-06-25T01:44:16.298Z,18.95
2017-06-25T01:44:42.434Z,18.86
2017-06-25T01:45:08.560Z,18.88
2017-06-25T01:45:34.651Z,19.02
2017-06-25T01:46:00.757Z,18.84
2017-06-25T01:46:26.856Z,18.83
2017-06-25T01:46:52.973Z,18.78
2017-06-25T01:47:19.098Z,18.89
2017-06-25T01:47:45.204Z,18.88
2017-06-25T01:48:11.292Z,18.78
2017-06-25T01:48:37.392Z,18.83
2017-06-25T01:49:03.497Z,18.9
2017-06-25T01:49:29.588Z,18.9
2017-06-25T01:49:55.690Z,18.83
2017-06-25T01:50:21.781Z,18.88
2017-06-25T01:50:47.884Z,18.8
2017-06-25T01:51:13.989Z,18.89
2017-06-25T01:51:40.077Z,18.9
2017-06-25T01:52:06.175Z,18.84
2017-06-25T01:52:32.309Z,18.92
2017-06-25T01:52:58.399Z,18.92
2017-06-25T01:53:24.521Z,18.8
2017-06-25T01:53:50.655Z,18.89
2017-06-25T01:54:16.773Z,18.84
2017-06-25T01:54:42.863Z,18.88
2017-06-25T01:55:08.966Z,18.86
2017-06-25T01:55:35.066Z,18.83
2017-06-25T01:56:01.172Z,18.92
2017-06-25T01:56:27.263Z,18.86
2017-06-25T01:56:53.361Z,18.95
2017-06-25T01:57:19.465Z,18.92
2017-06-25T01:57:45.559Z,18.88
2017-06-25T01:58:11.648Z,18.95
2017-06-25T01:58:37.757Z,18.9
2017-06-25T01:59:03.855Z,18.88
2017-06-25T01:59:29.947Z,18.9
2017-06-25T01:59:56.053Z,18.9
2017-06-25T02:00:22.152Z,18.86
2017-06-25T02:00:48.287Z,18.92
2017-06-25T02:01:14.391Z,18.88
2017-06-25T02:01:40.495Z,18.86
2017-06-25T02:02:06.582Z,18.93
2017-06-25T02:02:32.681Z,18.84
2017-06-25T02:02:58.813Z,18.9
2017-06-25T02:03:24.905Z,18.98
2017-06-25T02:03:51.025Z,18.99
2017-06-25T02:04:17.160Z,18.99
2017-06-25T02:04:43.255Z,19.04
2017-06-25T02:05:09.372Z,18.96
2017-06-25T02:05:35.511Z,19.04
2017-06-25T02:06:01.633Z,19.04
2017-06-25T02:06:27.738Z,19.09
2017-06-25T02:06:53.830Z,19.12
2017-06-25T02:07:19.949Z,19.15
2017-06-25T02:07:46.056Z,19.22
2017-06-25T02:08:12.149Z,19.19
2017-06-25T02:08:38.237Z,19.22
2017-06-25T02:09:04.361Z,19.22
2017-06-25T02:09:30.469Z,19.15
2017-06-25T02:09:56.584Z,19.16
2017-06-25T02:10:22.688Z,19.16
2017-06-25T02:10:48.785Z,19.11
2017-06-25T02:11:14.900Z,19.08
2017-06-25T02:11:41.003Z,19.04
2017-06-25T02:12:07.093Z,19.04
2017-06-25T02:12:39.496Z,19.12
2017-06-25T02:13:05.593Z,19.11
2017-06-25T02:13:31.699Z,19.07
2017-06-25T02:13:57.790Z,19.04
2017-06-25T02:14:23.891Z,19.11
2017-06-25T02:14:49.983Z,19.14
2017-06-25T02:15:16.087Z,19.11
2017-06-25T02:15:42.194Z,19.14
2017-06-25T02:16:08.282Z,19.08
2017-06-25T02:16:34.380Z,19.11
2017-06-25T02:17:00.513Z,19.18
2017-06-25T02:17:26.605Z,19.09
2017-06-25T02:17:52.733Z,19.04
2017-06-25T02:18:18.824Z,19.12
2017-06-25T02:18:44.926Z,19.04
2017-06-25T02:19:11.030Z,19.08
2017-06-25T02:19:37.119Z,19.09
2017-06-25T02:20:03.220Z,19.08
2017-06-25T02:20:29.325Z,19.04
2017-06-25T02:20:55.439Z,19.09
2017-06-25T02:21:21.535Z,19.07
2017-06-25T02:21:47.640Z,19.14
2017-06-25T02:22:13.734Z,19.12
2017-06-25T02:22:39.826Z,19.21
2017-06-25T02:23:05.954Z,19.15
2017-06-25T02:23:32.080Z,19.18
2017-06-25T02:23:58.213Z,19.24
2017-06-25T02:24:24.303Z,19.18
2017-06-25T02:24:50.398Z,19.19
2017-06-25T02:25:16.557Z,19.21
2017-06-25T02:25:42.698Z,19.16
2017-06-25T02:26:08.787Z,19.14
2017-06-25T02:26:34.898Z,19.19
2017-06-25T02:27:00.996Z,19.15
2017-06-25T02:27:27.112Z,19.18
2017-06-25T02:27:53.218Z,19.14
2017-06-25T02:28:19.314Z,19.21
2017-06-25T02:28:45.414Z,19.26
2017-06-25T02:29:11.508Z,19.24
2017-06-25T02:29:37.623Z,19.21
2017-06-25T02:30:03.760Z,19.27
2017-06-25T02:30:29.858Z,19.15
2017-06-25T02:30:56.023Z,19.26
2017-06-25T02:31:22.130Z,19.27
2017-06-25T02:31:48.257Z,19.26
2017-06-25T02:32:14.349Z,19.12
2017-06-25T02:32:40.454Z,19.22
2017-06-25T02:33:06.591Z,19.18
2017-06-25T02:33:32.673Z,19.14
2017-06-25T02:33:58.773Z,19.08
2017-06-25T02:34:24.896Z,19.22
2017-06-25T02:34:51.000Z,19.14
2017-06-25T02:35:17.101Z,19.15
2017-06-25T02:35:43.190Z,19.16
2017-06-25T02:36:09.322Z,19.15
2017-06-25T02:36:35.429Z,19.18
2017-06-25T02:37:01.517Z,19.15
2017-06-25T02:37:27.640Z,19.29
2017-06-25T02:37:53.747Z,19.15
2017-06-25T02:38:19.837Z,19.22
2017-06-25T02:38:45.957Z,19.14
2017-06-25T02:39:12.092Z,19.16
2017-06-25T02:39:38.184Z,19.14
2017-06-25T02:40:04.318Z,19.09
2017-06-25T02:40:30.429Z,19.14
2017-06-25T02:40:56.557Z,19.15
2017-06-25T02:41:22.713Z,19.19
2017-06-25T02:41:48.827Z,19.24
2017-06-25T02:42:14.973Z,19.18
2017-06-25T02:42:41.079Z,19.19
2017-06-25T02:43:07.175Z,19.14
2017-06-25T02:43:33.287Z,19.29
2017-06-25T02:43:59.423Z,19.15
2017-06-25T02:44:25.545Z,19.31
2017-06-25T02:44:51.636Z,19.21
2017-06-25T02:45:17.741Z,19.3
2017-06-25T02:45:43.866Z,19.29
2017-06-25T02:46:09.958Z,19.21
2017-06-25T02:46:36.060Z,19.27
2017-06-25T02:47:02.167Z,19.27
2017-06-25T02:47:28.253Z,19.22
2017-06-25T02:47:54.353Z,19.3
2017-06-25T02:48:20.461Z,19.34
2017-06-25T02:48:46.550Z,19.26
2017-06-25T02:49:12.646Z,19.3
2017-06-25T02:49:38.754Z,19.31
2017-06-25T02:50:04.848Z,19.26
2017-06-25T02:50:30.937Z,19.29
2017-06-25T02:50:57.042Z,19.27
2017-06-25T02:51:23.167Z,19.27
2017-06-25T02:51:49.273Z,19.3
2017-06-25T02:52:15.365Z,19.24
2017-06-25T02:52:41.462Z,19.31
2017-06-25T02:53:07.570Z,19.31
2017-06-25T02:53:33.687Z,19.31
2017-06-25T02:53:59.777Z,19.33
2017-06-25T02:54:25.888Z,19.37
2017-06-25T02:54:52.013Z,19.33
2017-06-25T02:55:18.127Z,19.33
2017-06-25T02:55:44.233Z,19.34
2017-06-25T02:56:10.363Z,19.34
2017-06-25T02:56:36.462Z,19.33
2017-06-25T02:57:02.559Z,19.34
2017-06-25T02:57:28.651Z,19.3
2017-06-25T02:57:54.757Z,19.3
2017-06-25T02:58:20.879Z,19.31
2017-06-25T02:58:46.994Z,19.22
2017-06-25T02:59:13.101Z,19.3
2017-06-25T02:59:39.202Z,19.16
2017-06-25T03:00:05.290Z,19.21
2017-06-25T03:00:31.393Z,19.14
2017-06-25T03:00:57.500Z,19.22
2017-06-25T03:01:23.588Z,19.14
2017-06-25T03:01:49.686Z,19.22
2017-06-25T03:02:15.781Z,19.12
2017-06-25T03:02:41.887Z,19.26
2017-06-25T03:03:07.987Z,19.09
2017-06-25T03:03:34.100Z,19.22
2017-06-25T03:04:00.205Z,19.18
2017-06-25T03:04:26.309Z,19.26
2017-06-25T03:04:52.394Z,19.18
2017-06-25T03:05:18.493Z,19.08
2017-06-25T03:05:44.630Z,19.11
2017-06-25T03:06:10.768Z,19.11
2017-06-25T03:06:36.887Z,19.12
2017-06-25T03:07:02.994Z,19.11
2017-06-25T03:07:29.089Z,19.04
2017-06-25T03:07:55.194Z,19.11
2017-06-25T03:08:21.280Z,19
2017-06-25T03:08:47.382Z,19.07
2017-06-25T03:09:13.514Z,18.93
2017-06-25T03:09:39.604Z,18.93
2017-06-25T03:10:05.701Z,19.07
2017-06-25T03:10:31.805Z,19.02
2017-06-25T03:10:57.922Z,19.12
2017-06-25T03:11:24.008Z,19.07
2017-06-25T03:11:50.119Z,19
2017-06-25T03:12:16.213Z,18.92
2017-06-25T03:12:42.302Z,18.9
2017-06-25T03:13:08.439Z,18.9
2017-06-25T03:13:34.534Z,18.9
2017-06-25T03:14:00.640Z,18.88
2017-06-25T03:14:26.733Z,18.9
2017-06-25T03:14:52.848Z,18.93
2017-06-25T03:15:18.957Z,18.95
2017-06-25T03:15:45.053Z,19.02
2017-06-25T03:16:11.141Z,19.07
2017-06-25T03:16:37.247Z,18.99
2017-06-25T03:17:03.349Z,18.98
2017-06-25T03:17:29.439Z,19.04
2017-06-25T03:17:55.565Z,18.99
2017-06-25T03:18:21.672Z,19.08
2017-06-25T03:18:47.765Z,19.04
2017-06-25T03:19:13.886Z,19.04
2017-06-25T03:19:39.999Z,18.99
2017-06-25T03:20:06.130Z,19
2017-06-25T03:20:32.229Z,18.89
2017-06-25T03:20:58.322Z,18.86
2017-06-25T03:21:24.424Z,18.84
2017-06-25T03:21:50.531Z,18.84
2017-06-25T03:22:16.617Z,18.89
2017-06-25T03:22:42.718Z,18.96
2017-06-25T03:23:08.852Z,18.99
2017-06-25T03:23:34.996Z,19.04
2017-06-25T03:24:01.090Z,18.98
2017-06-25T03:24:27.214Z,19
2017-06-25T03:24:53.343Z,19.11
2017-06-25T03:25:19.448Z,18.96
2017-06-25T03:25:45.557Z,19
2017-06-25T03:26:11.656Z,18.95
2017-06-25T03:26:37.789Z,18.96
2017-06-25T03:27:03.904Z,18.99
2017-06-25T03:27:29.998Z,18.98
2017-06-25T03:27:56.158Z,19.08
2017-06-25T03:28:22.280Z,19.07
2017-06-25T03:28:48.371Z,19.02
2017-06-25T03:29:14.508Z,18.98
2017-06-25T03:29:40.630Z,19.07
2017-06-25T03:30:06.745Z,18.96
2017-06-25T03:30:32.848Z,19
2017-06-25T03:30:58.975Z,18.99
2017-06-25T03:31:25.090Z,19.02
2017-06-25T03:31:51.220Z,19.02
2017-06-25T03:32:17.331Z,18.98
2017-06-25T03:32:43.441Z,18.86
2017-06-25T03:33:09.542Z,18.81
2017-06-25T03:33:35.648Z,18.84
2017-06-25T03:34:01.739Z,18.83
2017-06-25T03:34:27.836Z,18.78
2017-06-25T03:34:53.941Z,18.83
2017-06-25T03:35:20.035Z,18.83
2017-06-25T03:35:46.139Z,18.78
2017-06-25T03:36:12.224Z,18.84
2017-06-25T03:36:38.322Z,18.81
2017-06-25T03:37:04.429Z,18.73
2017-06-25T03:37:30.521Z,18.71
2017-06-25T03:37:56.641Z,18.8
2017-06-25T03:38:22.802Z,18.78
2017-06-25T03:38:48.897Z,18.75
2017-06-25T03:39:14.989Z,18.75
2017-06-25T03:39:41.126Z,18.84
2017-06-25T03:40:07.224Z,18.73
2017-06-25T03:40:33.338Z,18.8
2017-06-25T03:40:59.444Z,18.75
2017-06-25T03:41:25.539Z,18.8
2017-06-25T03:41:51.643Z,18.78
2017-06-25T03:42:17.735Z,18.68
2017-06-25T03:42:43.826Z,18.83
2017-06-25T03:43:09.963Z,18.81
2017-06-25T03:43:36.059Z,18.86
2017-06-25T03:44:02.149Z,18.86
2017-06-25T03:44:28.253Z,18.83
2017-06-25T03:44:54.354Z,18.86
2017-06-25T03:45:20.449Z,18.84
2017-06-25T03:45:46.574Z,18.83
2017-06-25T03:46:12.681Z,18.81
2017-06-25T03:46:38.771Z,18.81
2017-06-25T03:47:04.868Z,18.81
2017-06-25T03:47:30.957Z,18.83
2017-06-25T03:47:57.062Z,18.92
2017-06-25T03:48:23.189Z,18.84
2017-06-25T03:48:49.278Z,18.8
2017-06-25T03:49:15.382Z,18.89
2017-06-25T03:49:41.517Z,19.02
2017-06-25T03:50:07.601Z,18.9
2017-06-25T03:50:33.702Z,18.88
2017-06-25T03:50:59.835Z,18.93
2017-06-25T03:51:25.979Z,19.02
2017-06-25T03:51:52.076Z,19.02
2017-06-25T03:52:18.173Z,18.92
2017-06-25T03:52:44.307Z,18.88
2017-06-25T03:53:10.440Z,18.89
2017-06-25T03:53:36.579Z,18.9
2017-06-25T03:54:02.679Z,18.89
2017-06-25T03:54:28.781Z,18.83
2017-06-25T03:54:54.900Z,18.88
2017-06-25T03:55:20.996Z,18.83
2017-06-25T03:55:47.103Z,18.92
2017-06-25T03:56:13.225Z,18.98
2017-06-25T03:56:39.316Z,19.04
2017-06-25T03:57:05.448Z,19
2017-06-25T03:57:31.574Z,18.92
2017-06-25T03:57:57.675Z,18.92
2017-06-25T03:58:23.767Z,18.81
2017-06-25T03:58:49.864Z,18.88
2017-06-25T03:59:15.971Z,18.8
2017-06-25T03:59:42.092Z,18.81
2017-06-25T04:00:08.206Z,18.84
2017-06-25T04:00:34.313Z,18.89
2017-06-25T04:01:00.409Z,18.86
2017-06-25T04:01:26.499Z,18.86
2017-06-25T04:01:52.632Z,18.89
2017-06-25T04:02:18.760Z,18.88
2017-06-25T04:02:44.849Z,18.89
2017-06-25T04:03:10.975Z,18.89
2017-06-25T04:03:37.090Z,18.96
2017-06-25T04:04:03.198Z,18.93
2017-06-25T04:04:29.292Z,18.98
2017-06-25T04:04:55.381Z,19
2017-06-25T04:05:21.483Z,18.95
2017-06-25T04:05:47.612Z,19.04
2017-06-25T04:06:13.702Z,18.89
2017-06-25T04:06:39.830Z,18.84
2017-06-25T04:07:05.937Z,18.84
2017-06-25T04:07:32.024Z,18.93
2017-06-25T04:07:58.122Z,18.88
2017-06-25T04:08:24.229Z,18.83
2017-06-25T04:08:50.319Z,18.9
2017-06-25T04:09:16.419Z,18.98
2017-06-25T04:09:42.534Z,18.9
2017-06-25T04:10:08.663Z,18.88
2017-06-25T04:10:34.764Z,18.86
2017-06-25T04:11:00.850Z,18.96
2017-06-25T04:11:26.950Z,19.07
2017-06-25T04:11:53.084Z,18.98
2017-06-25T04:12:19.173Z,19.04
2017-06-25T04:12:45.270Z,18.93
2017-06-25T04:13:11.377Z,19
2017-06-25T04:13:37.469Z,19
2017-06-25T04:14:03.557Z,19.02
2017-06-25T04:14:29.669Z,19.02
2017-06-25T04:14:55.768Z,19.04
2017-06-25T04:15:21.857Z,18.99
2017-06-25T04:15:47.962Z,19
2017-06-25T04:16:14.062Z,19
2017-06-25T04:16:40.178Z,18.99
2017-06-25T04:17:06.282Z,18.96
2017-06-25T04:17:32.416Z,18.99
2017-06-25T04:17:58.526Z,18.98
2017-06-25T04:18:24.626Z,18.95
2017-06-25T04:18:50.757Z,18.9
2017-06-25T04:19:16.873Z,18.9
2017-06-25T04:19:42.967Z,18.9
2017-06-25T04:20:09.062Z,18.9
2017-06-25T04:20:35.165Z,18.96
2017-06-25T04:21:01.271Z,18.99
2017-06-25T04:21:27.360Z,19
2017-06-25T04:21:53.484Z,18.99
2017-06-25T04:22:19.591Z,18.89
2017-06-25T04:22:45.681Z,18.89
2017-06-25T04:23:11.777Z,18.8
2017-06-25T04:23:37.966Z,18.86
2017-06-25T04:24:04.100Z,18.9
2017-06-25T04:24:30.200Z,18.83
2017-06-25T04:24:56.307Z,18.9
2017-06-25T04:25:22.403Z,18.89
2017-06-25T04:25:48.507Z,18.92
2017-06-25T04:26:14.625Z,18.99
2017-06-25T04:26:40.718Z,18.99
2017-06-25T04:27:06.825Z,18.96
2017-06-25T04:27:32.919Z,18.96
2017-06-25T04:27:59.008Z,19.04
2017-06-25T04:28:25.171Z,19
2017-06-25T04:28:51.293Z,19.04
2017-06-25T04:29:17.381Z,19
2017-06-25T04:29:43.488Z,18.99
2017-06-25T04:30:09.643Z,19.08
2017-06-25T04:30:35.731Z,19.07
2017-06-25T04:31:01.833Z,18.99
2017-06-25T04:31:27.924Z,19.02
2017-06-25T04:31:54.030Z,19
2017-06-25T04:32:20.153Z,18.95
2017-06-25T04:32:46.244Z,18.99
2017-06-25T04:33:12.352Z,19
2017-06-25T04:33:38.451Z,18.98
2017-06-25T04:34:04.544Z,18.99
2017-06-25T04:34:30.673Z,19
2017-06-25T04:34:56.780Z,18.96
2017-06-25T04:35:22.867Z,19.07
2017-06-25T04:35:48.965Z,19.08
2017-06-25T04:36:15.098Z,19.04
2017-06-25T04:36:41.190Z,18.9
2017-06-25T04:37:07.293Z,18.88
2017-06-25T04:37:33.384Z,19.02
2017-06-25T04:37:59.515Z,18.99
2017-06-25T04:38:25.677Z,19.02
2017-06-25T04:38:51.764Z,19.08
2017-06-25T04:39:17.865Z,18.98
2017-06-25T04:39:43.972Z,18.95
2017-06-25T04:40:10.091Z,18.88
2017-06-25T04:40:36.188Z,19.02
2017-06-25T04:41:02.320Z,19.04
2017-06-25T04:41:28.414Z,19.04
2017-06-25T04:41:54.529Z,19.08
2017-06-25T04:42:20.631Z,19.07
2017-06-25T04:42:46.753Z,18.99
2017-06-25T04:43:12.885Z,19.07
2017-06-25T04:43:38.974Z,18.99
2017-06-25T04:44:05.070Z,18.95
2017-06-25T04:44:31.177Z,19.02
2017-06-25T04:44:57.593Z,19.02
2017-06-25T04:45:23.684Z,19.02
2017-06-25T04:45:49.820Z,19.04
2017-06-25T04:46:15.942Z,19.12
2017-06-25T04:46:42.030Z,19.08
2017-06-25T04:47:08.163Z,19.09
2017-06-25T04:47:34.265Z,19.11
2017-06-25T04:48:00.365Z,19.11
2017-06-25T04:48:26.459Z,19.09
2017-06-25T04:48:52.550Z,19.08
2017-06-25T04:49:18.657Z,19.11
2017-06-25T04:49:44.755Z,19.11
2017-06-25T04:50:10.847Z,19.07
2017-06-25T04:50:36.953Z,19.14
2017-06-25T04:51:03.052Z,19.19
2017-06-25T04:51:29.142Z,19.07
2017-06-25T04:51:55.244Z,19.11
2017-06-25T04:52:21.378Z,19.15
2017-06-25T04:52:47.466Z,19.18
2017-06-25T04:53:13.566Z,19.11
2017-06-25T04:53:39.659Z,19.07
2017-06-25T04:54:05.765Z,19.18
2017-06-25T04:54:31.920Z,19.16
2017-06-25T04:54:58.009Z,19.22
2017-06-25T04:55:24.113Z,19.15
2017-06-25T04:55:50.218Z,19.21
2017-06-25T04:56:16.302Z,19.24
2017-06-25T04:56:42.404Z,19.14
2017-06-25T04:57:08.510Z,19.22
2017-06-25T04:57:34.599Z,19.26
2017-06-25T04:58:00.696Z,19.24
2017-06-25T04:58:26.804Z,19.22
2017-06-25T04:58:52.923Z,19.16
2017-06-25T04:59:19.015Z,19.08
2017-06-25T04:59:45.154Z,19.14
2017-06-25T05:00:11.273Z,19.11
2017-06-25T05:00:37.363Z,19.14
2017-06-25T05:01:03.496Z,19.12
2017-06-25T05:01:29.599Z,19.16
2017-06-25T05:01:55.688Z,19.12
2017-06-25T05:02:21.791Z,19.11
2017-06-25T05:02:47.925Z,19.07
2017-06-25T05:03:14.014Z,19.04
2017-06-25T05:03:40.158Z,19.09
2017-06-25T05:04:06.265Z,19.07
2017-06-25T05:04:32.355Z,19.09
2017-06-25T05:04:58.458Z,19.12
2017-06-25T05:05:24.547Z,19.18
2017-06-25T05:05:50.649Z,19.11
2017-06-25T05:06:16.781Z,19.08
2017-06-25T05:06:42.866Z,19.21
2017-06-25T05:07:08.966Z,19.16
2017-06-25T05:07:35.072Z,19.21
2017-06-25T05:08:01.187Z,19.21
2017-06-25T05:08:27.286Z,19.15
2017-06-25T05:08:53.394Z,19.09
2017-06-25T05:09:19.487Z,19.11
2017-06-25T05:09:45.629Z,19.07
2017-06-25T05:10:11.884Z,19.12
2017-06-25T05:10:37.984Z,19.18
2017-06-25T05:11:04.107Z,19.14
2017-06-25T05:11:30.205Z,19.14
2017-06-25T05:11:56.301Z,19.16
2017-06-25T05:12:22.408Z,19.24
2017-06-25T05:12:48.501Z,19.26
2017-06-25T05:13:14.591Z,19.19
2017-06-25T05:13:40.701Z,19.14
2017-06-25T05:14:06.799Z,19.26
2017-06-25T05:14:32.887Z,19.22
2017-06-25T05:14:59.019Z,19.11
2017-06-25T05:15:25.526Z,19.26
2017-06-25T05:15:51.624Z,19.16
2017-06-25T05:16:17.720Z,19.16
2017-06-25T05:16:43.856Z,19.22
2017-06-25T05:17:09.993Z,19.15
2017-06-25T05:17:36.091Z,19.27
2017-06-25T05:18:02.183Z,19.22
2017-06-25T05:18:28.318Z,19.22
2017-06-25T05:18:54.417Z,19.24
2017-06-25T05:19:20.510Z,19.29
2017-06-25T05:19:46.694Z,19.27
2017-06-25T05:20:12.801Z,19.22
2017-06-25T05:20:38.915Z,19.16
2017-06-25T05:21:05.018Z,19.12
2017-06-25T05:21:31.138Z,19.16
2017-06-25T05:21:57.271Z,19.15
2017-06-25T05:22:23.369Z,19.22
2017-06-25T05:22:49.461Z,19.16
2017-06-25T05:23:15.588Z,19.09
2017-06-25T05:23:41.722Z,19.04
2017-06-25T05:24:07.808Z,18.99
2017-06-25T05:24:33.908Z,19.14
2017-06-25T05:25:00.014Z,18.96
2017-06-25T05:25:26.131Z,18.99
2017-06-25T05:25:52.229Z,19.08
2017-06-25T05:26:18.390Z,19.02
2017-06-25T05:26:44.512Z,18.93
2017-06-25T05:27:10.617Z,19.07
2017-06-25T05:27:36.704Z,19.14
2017-06-25T05:28:02.803Z,19.22
2017-06-25T05:28:28.937Z,19.14
2017-06-25T05:28:55.028Z,19.27
2017-06-25T05:29:21.148Z,19.27
2017-06-25T05:29:47.254Z,19.21
2017-06-25T05:30:13.348Z,19.31
2017-06-25T05:30:39.437Z,19.39
2017-06-25T05:31:05.582Z,19.36
2017-06-25T05:31:31.698Z,19.51
2017-06-25T05:31:57.790Z,19.37
2017-06-25T05:32:23.897Z,19.48
2017-06-25T05:32:49.991Z,19.49
2017-06-25T05:33:16.099Z,19.62
2017-06-25T05:33:42.191Z,19.56
2017-06-25T05:34:08.310Z,19.63
2017-06-25T05:34:34.422Z,19.56
2017-06-25T05:35:00.519Z,19.59
2017-06-25T05:35:26.633Z,19.58
2017-06-25T05:35:52.743Z,19.62
2017-06-25T05:36:18.845Z,19.59
2017-06-25T05:36:44.959Z,19.58
2017-06-25T05:37:11.114Z,19.56
2017-06-25T05:37:37.217Z,19.64
2017-06-25T05:38:03.336Z,19.62